Time;durP1;ratioP1;P1;durP2;ratioP2;P2;SDS_P1;SDS_P2;PMS_P1;PMS_P2;Temp;Humidity;BMP_temperature;BMP_pressure;BME280_temperature;BME280_humidity;BME280_pressure;Samples;Min_cycle;Max_cycle;Signal;HPM_P1;HPM_P2
2024/04/18 00:02:22;;;;;;;2.53;1.10;;;;;;;3.68;69.65;91964.63;2027918;70;20141;-70
2024/04/18 00:04:48;;;;;;;2.42;1.27;;;;;;;3.65;68.95;91965.03;2027831;70;20577;-68
2024/04/18 00:07:29;;;;;;;1.67;1.00;;;;;;;3.56;69.85;91955.34;2024527;70;20221;-69
2024/04/18 00:10:12;;;;;;;1.77;1.10;;;;;;;3.53;70.20;91951.72;2028203;70;20141;-69
2024/04/18 00:12:40;;;;;;;2.08;1.17;;;;;;;3.65;69.02;91951.13;2028201;70;20165;-69
2024/04/18 00:15:20;;;;;;;1.90;1.00;;;;;;;3.61;69.27;91948.75;2027913;70;20179;-69
2024/04/18 00:17:46;;;;;;;1.20;0.90;;;;;;;3.53;69.28;91950.97;2028052;70;20190;-68
2024/04/18 00:20:22;;;;;;;1.15;0.82;;;;;;;3.58;68.84;91958.31;2028072;70;20137;-71
2024/04/18 00:22:48;;;;;;;1.00;0.90;;;;;;;3.64;67.80;91955.97;2024545;70;20187;-71
2024/04/18 00:25:16;;;;;;;1.38;1.00;;;;;;;3.59;69.17;91956.97;2028413;70;20197;-69
2024/04/18 00:27:52;;;;;;;1.85;0.90;;;;;;;3.56;69.31;91947.72;2028492;70;20191;-70
2024/04/18 00:30:40;;;;;;;1.50;0.93;;;;;;;3.63;69.40;91951.72;2028211;70;20669;-69
2024/04/18 00:33:06;;;;;;;1.67;0.93;;;;;;;3.75;68.19;91957.44;2028350;70;20171;-69
2024/04/18 00:35:38;;;;;;;1.10;0.90;;;;;;;3.65;68.82;91953.91;2028105;70;20191;-70
2024/04/18 00:38:10;;;;;;;;;;;;;;;3.80;68.02;91956.41;2028615;70;20237;-70
2024/04/18 00:40:43;;;;;;;1.75;1.30;;;;;;;3.76;67.82;91945.72;2028500;70;20060;-70
2024/04/18 00:43:20;;;;;;;3.05;1.05;;;;;;;3.72;69.70;91937.06;2028321;70;20271;-71
2024/04/18 00:45:54;;;;;;;2.03;1.10;;;;;;;3.79;69.14;91958.47;2028260;70;20586;-71
2024/04/18 00:48:24;;;;;;;1.75;0.90;;;;;;;3.74;69.67;91948.34;2028073;70;20281;-70
2024/04/18 00:50:52;;;;;;;2.80;0.90;;;;;;;3.81;68.80;91950.25;2028297;70;20153;-72
2024/04/18 00:53:18;;;;;;;1.20;0.90;;;;;;;3.80;68.86;91943.25;2024835;70;20167;-69
2024/04/18 00:55:49;;;;;;;3.28;1.10;;;;;;;3.74;68.59;91928.13;2024998;70;20161;-70
2024/04/18 00:58:15;;;;;;;2.65;1.00;;;;;;;3.97;67.68;91945.13;2028367;70;20232;-71
2024/04/18 01:00:41;;;;;;;2.33;1.20;;;;;;;3.72;69.07;91941.91;2027750;70;20677;-68
2024/04/18 01:03:28;;;;;;;1.40;1.10;;;;;;;3.73;69.37;91938.53;2028300;70;20153;-69
2024/04/18 01:06:08;;;;;;;1.70;1.10;;;;;;;3.75;69.60;91947.03;2028507;70;20152;-69
2024/04/18 01:08:53;;;;;;;1.45;1.17;;;;;;;3.74;69.05;91942.78;2028426;70;20156;-71
2024/04/18 01:11:32;;;;;;;2.95;1.30;;;;;;;3.42;71.08;91946.69;2028445;70;20322;-70
2024/04/18 01:14:08;;;;;;;2.50;1.23;;;;;;;3.45;70.73;91936.44;2028514;70;20152;-70
2024/04/18 01:16:52;;;;;;;5.43;1.30;;;;;;;3.38;71.43;91938.03;2028398;70;20199;-70
2024/04/18 01:19:19;;;;;;;1.70;1.30;;;;;;;3.51;70.53;91939.69;2028308;70;20247;-70
2024/04/18 01:21:47;;;;;;;2.47;1.33;;;;;;;3.41;71.17;91939.66;2028205;70;20163;-69
2024/04/18 01:24:14;;;;;;;2.10;1.08;;;;;;;3.42;71.42;91938.34;2027869;70;20592;-69
2024/04/18 01:26:41;;;;;;;2.58;1.23;;;;;;;3.63;70.44;91943.38;2028307;70;20514;-69
2024/04/18 01:29:06;;;;;;;4.22;1.50;;;;;;;3.53;71.25;91932.22;2028500;70;20235;-69
2024/04/18 01:31:32;;;;;;;1.67;1.30;;;;;;;3.69;70.43;91935.44;2028366;70;20173;-69
2024/04/18 01:33:58;;;;;;;2.58;1.20;;;;;;;3.75;69.61;91938.66;2024361;70;20196;-69
2024/04/18 01:36:24;;;;;;;4.05;1.35;;;;;;;3.63;70.66;91931.50;2028395;70;20247;-69
2024/04/18 01:38:50;;;;;;;2.22;1.30;;;;;;;3.84;70.16;91937.22;2028118;70;20168;-69
2024/04/18 01:41:29;;;;;;;3.28;1.40;;;;;;;3.91;70.07;91941.19;2028106;70;20159;-70
2024/04/18 01:44:00;;;;;;;5.23;1.67;;;;;;;3.76;70.20;91933.84;2028331;70;20184;-69
2024/04/18 01:46:45;;;;;;;2.42;1.27;;;;;;;3.89;69.48;91933.41;2027945;70;20674;-68
2024/04/18 01:49:28;;;;;;;2.58;1.25;;;;;;;3.94;69.99;91940.75;2028234;70;20167;-71
2024/04/18 01:51:54;;;;;;;4.22;1.33;;;;;;;3.88;69.52;91934.00;2028291;70;20188;-69
2024/04/18 01:54:32;;;;;;;2.30;1.30;;;;;;;3.81;69.51;91933.56;2028195;70;20581;-69
2024/04/18 01:56:58;;;;;;;2.22;1.05;;;;;;;3.86;70.04;91928.28;2027907;70;20180;-69
2024/04/18 01:59:24;;;;;;;1.38;1.10;;;;;;;3.86;70.68;91937.38;2027868;70;20148;-70
2024/04/18 02:01:50;;;;;;;2.25;1.15;;;;;;;3.91;69.93;91938.41;2028138;70;20235;-69
2024/04/18 02:04:19;;;;;;;2.22;1.20;;;;;;;3.93;69.63;91939.25;2027956;70;20144;-70
2024/04/18 02:06:48;;;;;;;2.17;1.25;;;;;;;4.00;69.16;91946.00;2028091;70;20215;-67
2024/04/18 02:09:22;;;;;;;1.83;1.27;;;;;;;4.12;68.78;91946.16;2026929;70;20720;-71
2024/04/18 02:11:51;;;;;;;3.42;1.10;;;;;;;3.76;69.32;91948.50;2027140;70;20225;-71
2024/04/18 02:14:36;;;;;;;3.53;1.30;;;;;;;3.85;70.34;91940.72;2027701;70;20152;-71
2024/04/18 02:17:02;;;;;;;3.92;1.30;;;;;;;3.70;70.70;91941.75;2027523;70;20316;-71
2024/04/18 02:19:28;;;;;;;3.75;1.52;;;;;;;3.90;70.06;91957.16;2027572;70;20325;-68
2024/04/18 02:21:57;;;;;;;1.92;1.30;;;;;;;3.81;69.74;91930.78;2027320;70;20293;-69
2024/04/18 02:24:38;;;;;;;2.13;1.50;;;;;;;3.90;70.72;91965.50;2027779;70;20152;-72
2024/04/18 02:27:03;;;;;;;3.53;1.23;;;;;;;4.02;69.63;91963.59;2028173;70;20152;-70
2024/04/18 02:29:29;;;;;;;5.10;1.60;;;;;;;4.12;69.57;91962.84;2028722;70;20218;-71
2024/04/18 02:31:59;;;;;;;2.83;1.30;;;;;;;4.14;70.15;91963.03;2028176;70;20172;-72
2024/04/18 02:34:30;;;;;;;3.67;1.63;;;;;;;3.83;69.03;91958.75;2027711;70;20149;-70
2024/04/18 02:36:56;;;;;;;5.00;2.63;;;;;;;3.61;71.25;91971.03;2027336;70;20137;-70
2024/04/18 02:39:21;;;;;;;2.75;1.98;;;;;;;3.84;70.67;91965.06;2028063;70;20163;-69
2024/04/18 02:41:47;;;;;;;3.78;1.90;;;;;;;3.94;70.60;91971.38;2027307;70;20539;-69
2024/04/18 02:44:33;;;;;;;3.28;1.90;;;;;;;3.87;70.42;91969.47;2026122;70;20563;-68
2024/04/18 02:46:59;;;;;;;4.88;2.20;;;;;;;4.06;70.65;91968.72;2028093;70;20216;-69
2024/04/18 02:49:24;;;;;;;3.33;1.92;;;;;;;4.18;69.31;91966.81;2027983;70;20141;-68
2024/04/18 02:51:56;;;;;;;3.35;2.00;;;;;;;4.06;69.53;91985.44;2028423;70;20240;-70
2024/04/18 02:54:41;;;;;;;3.42;1.80;;;;;;;3.68;70.95;91972.22;2028176;70;20168;-69
2024/04/18 02:57:06;;;;;;;3.05;1.90;;;;;;;3.56;70.32;91953.31;2028222;70;20157;-72
2024/04/18 02:59:33;;;;;;;2.92;1.90;;;;;;;3.65;71.64;91978.97;2027935;70;20617;-70
2024/04/18 03:02:18;;;;;;;2.33;1.70;;;;;;;3.36;72.07;91978.91;2028044;70;20152;-71
2024/04/18 03:04:45;;;;;;;4.15;1.63;;;;;;;3.64;72.21;91983.78;2028189;70;20153;-71
2024/04/18 03:07:11;;;;;;;2.10;1.45;;;;;;;3.77;71.08;91993.78;2027908;70;20151;-70
2024/04/18 03:09:46;;;;;;;2.78;1.67;;;;;;;3.83;71.54;91974.72;2027866;70;20141;-69
2024/04/18 03:12:25;;;;;;;3.53;2.10;;;;;;;3.91;71.09;91980.16;2027406;70;20169;-69
2024/04/18 03:15:08;;;;;;;3.13;2.05;;;;;;;4.01;71.21;91981.63;2027176;70;20267;-71
2024/04/18 03:17:39;;;;;;;4.22;1.90;;;;;;;4.00;71.18;91982.22;2027757;70;20157;-71
2024/04/18 03:20:05;;;;;;;4.00;2.00;;;;;;;4.13;70.77;91978.28;2028078;70;20148;-69
2024/04/18 03:22:51;;;;;;;2.30;1.80;;;;;;;3.94;70.44;91979.72;2027740;70;20194;-68
2024/04/18 03:25:16;;;;;;;3.13;2.00;;;;;;;4.04;70.55;91979.72;2028186;70;20145;-69
2024/04/18 03:28:00;;;;;;;3.35;1.83;;;;;;;3.92;71.13;91970.50;2027071;70;20487;-69
2024/04/18 03:30:26;;;;;;;3.92;2.03;;;;;;;3.95;71.83;91983.97;2027475;70;20144;-71
2024/04/18 03:33:07;;;;;;;5.15;1.73;;;;;;;3.80;71.84;91951.59;2027369;70;20551;-73
2024/04/18 03:35:37;;;;;;;3.90;2.20;;;;;;;4.02;71.48;91979.56;2027699;70;20148;-71
2024/04/18 03:38:15;;;;;;;6.55;3.40;;;;;;;3.97;72.06;91989.69;2028265;70;20248;-70
2024/04/18 03:40:40;;;;;;;7.47;3.75;;;;;;;3.96;72.08;91976.34;2028178;70;20646;-72
2024/04/18 03:43:08;;;;;;;4.30;2.83;;;;;;;4.04;70.53;91982.53;2028274;70;20161;-72
2024/04/18 03:45:33;;;;;;;4.80;2.40;;;;;;;3.95;71.92;91977.69;2028123;70;20160;-71
2024/04/18 03:48:17;;;;;;;3.45;2.10;;;;;;;3.88;71.66;91976.50;2028216;70;20582;-72
2024/04/18 03:50:43;;;;;;;5.18;2.13;;;;;;;3.89;71.84;91980.00;2027457;70;20181;-72
2024/04/18 03:53:18;;;;;;;3.58;2.00;;;;;;;3.72;71.86;91967.69;2028040;70;20144;-72
2024/04/18 03:55:43;;;;;;;2.92;2.10;;;;;;;3.78;72.02;91973.69;2028664;70;20227;-70
2024/04/18 03:58:09;;;;;;;2.55;1.75;;;;;;;3.73;71.90;91983.06;2028679;70;20236;-70
2024/04/18 04:00:49;;;;;;;3.00;1.85;;;;;;;3.68;71.53;91984.09;2028565;70;20172;-69
2024/04/18 04:03:15;;;;;;;2.47;1.52;;;;;;;3.71;72.00;91994.06;2028591;70;20153;-70
2024/04/18 04:05:40;;;;;;;2.33;1.60;;;;;;;3.58;73.33;91991.69;2028060;70;20152;-69
2024/04/18 04:08:06;;;;;;;4.68;2.00;;;;;;;3.51;72.98;91970.28;2028671;70;20159;-70
2024/04/18 04:10:39;;;;;;;3.47;1.80;;;;;;;3.58;73.20;91986.13;2028802;70;20208;-70
2024/04/18 04:13:04;;;;;;;3.53;2.20;;;;;;;3.56;72.89;91985.97;2028384;70;20149;-69
2024/04/18 04:15:50;;;;;;;3.17;2.20;;;;;;;3.62;72.58;92002.38;2028346;70;20175;-69
2024/04/18 04:18:34;;;;;;;3.22;2.63;;;;;;;3.68;72.45;91994.50;2028354;70;20140;-69
2024/04/18 04:21:19;;;;;;;4.38;2.70;;;;;;;3.66;72.22;91994.34;2028636;70;20514;-68
2024/04/18 04:23:44;;;;;;;4.68;2.95;;;;;;;3.67;73.13;92001.38;2027905;70;20292;-68
2024/04/18 04:26:10;;;;;;;5.50;3.35;;;;;;;3.70;72.12;91992.59;2028432;70;20189;-69
2024/04/18 04:28:35;;;;;;;6.20;3.60;;;;;;;3.82;71.63;92003.91;2028491;70;20155;-70
2024/04/18 04:31:01;;;;;;;6.65;3.60;;;;;;;3.73;72.06;91999.78;2028478;70;20149;-68
2024/04/18 04:33:28;;;;;;;5.15;3.38;;;;;;;3.74;72.96;92008.84;2028529;70;20518;-69
2024/04/18 04:35:55;;;;;;;5.35;3.58;;;;;;;3.80;73.04;92006.50;2028626;70;20148;-70
2024/04/18 04:38:20;;;;;;;5.88;3.03;;;;;;;3.87;72.25;92002.88;2028649;70;20281;-70
2024/04/18 04:40:46;;;;;;;3.58;2.85;;;;;;;3.88;72.15;92006.38;2028506;70;20136;-71
2024/04/18 04:43:11;;;;;;;3.92;2.60;;;;;;;3.96;71.83;92016.06;2028530;70;20170;-70
2024/04/18 04:45:37;;;;;;;5.53;3.22;;;;;;;3.92;72.56;92015.03;2028518;70;20148;-68
2024/04/18 04:48:06;;;;;;;7.80;4.68;;;;;;;4.00;73.44;92012.84;2028677;70;20137;-69
2024/04/18 04:50:32;;;;;;;7.95;5.22;;;;;;;4.00;72.54;92012.84;2027984;70;20189;-70
2024/04/18 04:53:13;;;;;;;8.48;5.32;;;;;;;4.11;72.54;92014.31;2028613;70;20152;-70
2024/04/18 04:55:58;;;;;;;6.90;4.32;;;;;;;4.18;72.73;92027.38;2028835;70;20152;-70
2024/04/18 04:58:23;;;;;;;6.22;3.30;;;;;;;4.25;70.28;92029.28;2028535;70;20151;-69
2024/04/18 05:00:49;;;;;;;4.93;2.83;;;;;;;4.09;71.04;92023.28;2028356;70;20155;-69
2024/04/18 05:03:35;;;;;;;3.33;2.10;;;;;;;3.58;74.00;92027.88;2028662;70;20239;-68
2024/04/18 05:06:20;;;;;;;2.60;2.03;;;;;;;4.16;72.26;92041.16;2028672;70;20270;-69
2024/04/18 05:09:06;;;;;;;4.80;2.55;;;;;;;4.10;71.04;92043.50;2028521;70;20506;-71
2024/04/18 05:11:33;;;;;;;5.88;2.78;;;;;;;4.15;72.06;92043.22;2028079;70;20137;-69
2024/04/18 05:14:00;;;;;;;4.55;2.60;;;;;;;4.20;72.06;92044.97;2028598;70;20265;-70
2024/04/18 05:16:44;;;;;;;3.05;2.22;;;;;;;3.94;72.82;92049.34;2028506;70;20183;-68
2024/04/18 05:19:10;;;;;;;3.45;2.35;;;;;;;4.00;72.30;92040.72;2028985;70;20147;-70
2024/04/18 05:21:36;;;;;;;4.30;2.40;;;;;;;4.09;72.24;92059.50;2028864;70;20149;-70
2024/04/18 05:24:21;;;;;;;2.70;2.10;;;;;;;3.83;73.43;92061.03;2028489;70;20188;-72
2024/04/18 05:26:46;;;;;;;3.90;1.98;;;;;;;4.07;72.32;92064.88;2028400;70;20243;-69
2024/04/18 05:31:59;;;;;;;3.88;1.98;;;;;;;3.84;72.32;92062.50;2028514;70;20599;-71
2024/04/18 05:34:25;;;;;;;2.10;1.73;;;;;;;4.00;72.38;92068.56;2028464;70;20173;-72
2024/04/18 05:36:51;;;;;;;3.25;1.80;;;;;;;4.17;72.50;92071.22;2028275;70;20502;-72
2024/04/18 05:39:16;;;;;;;3.65;1.88;;;;;;;4.12;72.40;92069.44;2028470;70;20156;-68
2024/04/18 05:41:42;;;;;;;3.03;1.95;;;;;;;4.21;70.77;92081.91;2028371;70;20152;-73
2024/04/18 05:44:29;;;;;;;4.47;3.05;;;;;;;4.18;72.34;92072.69;2028347;70;20184;-70
2024/04/18 05:46:56;;;;;;;3.85;2.72;;;;;;;4.12;73.16;92077.78;2028468;70;20163;-71
2024/04/18 05:49:22;;;;;;;4.20;2.80;;;;;;;4.11;73.35;92092.31;2027604;70;20654;-70
2024/04/18 05:51:49;;;;;;;3.08;2.40;;;;;;;4.24;73.03;92089.84;2028584;70;20267;-69
2024/04/18 05:54:31;;;;;;;7.70;4.45;;;;;;;4.13;73.36;92096.00;2027763;70;20651;-70
2024/04/18 05:57:03;;;;;;;4.57;3.10;;;;;;;4.23;72.74;92096.75;2028432;70;20199;-70
2024/04/18 05:59:49;;;;;;;7.32;2.80;;;;;;;4.37;72.21;92102.63;2027359;70;20267;-69
2024/04/18 06:02:14;;;;;;;7.82;5.82;;;;;;;4.05;73.68;92107.25;2028159;70;20176;-72
2024/04/18 06:04:43;;;;;;;6.63;4.57;;;;;;;3.83;74.66;92105.59;2027765;70;20152;-70
2024/04/18 06:07:28;;;;;;;12.05;8.40;;;;;;;4.04;73.73;92105.06;2028300;70;20237;-70
2024/04/18 06:09:53;;;;;;;11.88;9.23;;;;;;;4.14;73.15;92105.81;2028336;70;20165;-69
2024/04/18 06:12:19;;;;;;;12.43;9.07;;;;;;;3.99;73.99;92104.03;2028276;70;20217;-70
2024/04/18 06:14:44;;;;;;;8.23;6.05;;;;;;;3.86;75.15;92103.72;2028267;70;20169;-70
2024/04/18 06:17:10;;;;;;;8.25;6.30;;;;;;;4.19;73.76;92109.63;2028356;70;20602;-70
2024/04/18 06:19:51;;;;;;;9.70;6.55;;;;;;;4.39;72.32;92105.56;2027938;70;20182;-69
2024/04/18 06:22:29;;;;;;;9.05;5.95;;;;;;;4.60;72.70;92102.19;2028294;70;20192;-69
2024/04/18 06:25:17;;;;;;;9.80;5.53;;;;;;;4.71;71.55;92098.81;2027951;70;20152;-69
2024/04/18 06:27:43;;;;;;;6.85;3.78;;;;;;;4.77;72.00;92104.09;2028230;70;20659;-69
2024/04/18 06:30:10;;;;;;;4.57;2.53;;;;;;;4.90;69.25;92105.69;2028057;70;20251;-69
2024/04/18 06:32:36;;;;;;;4.78;3.20;;;;;;;4.79;71.89;92098.66;2028504;70;20156;-73
2024/04/18 06:35:02;;;;;;;4.65;3.20;;;;;;;4.92;70.95;92101.00;2028462;70;20253;-70
2024/04/18 06:37:28;;;;;;;7.03;4.05;;;;;;;5.15;70.59;92099.81;2028455;70;20172;-71
2024/04/18 06:39:54;;;;;;;6.05;3.75;;;;;;;5.32;70.45;92105.94;2028428;70;20144;-71
2024/04/18 06:42:19;;;;;;;5.78;3.35;;;;;;;5.39;71.29;92100.78;2028370;70;20152;-71
2024/04/18 06:44:45;;;;;;;5.03;2.50;;;;;;;5.60;70.96;92101.59;2028127;70;20176;-71
2024/04/18 06:47:10;;;;;;;1.58;1.48;;;;;;;5.37;70.86;92098.56;2028282;70;20661;-70
2024/04/18 06:49:36;;;;;;;1.80;1.23;;;;;;;5.70;70.70;92098.75;2028446;70;20201;-70
2024/04/18 06:52:02;;;;;;;1.63;1.05;;;;;;;5.84;69.67;92110.88;2028322;70;20140;-70
2024/04/18 06:54:28;;;;;;;3.25;2.45;;;;;;;5.79;69.94;92105.63;2028370;70;20156;-69
2024/04/18 06:56:53;;;;;;;7.10;4.47;;;;;;;5.68;69.44;92112.59;2028297;70;20176;-69
2024/04/18 06:59:19;;;;;;;10.18;5.10;;;;;;;5.85;69.26;92106.75;2028375;70;20160;-70
2024/04/18 07:01:46;;;;;;;4.90;3.20;;;;;;;5.76;68.18;92101.94;2028193;70;20164;-72
2024/04/18 07:04:11;;;;;;;6.85;4.07;;;;;;;5.98;67.35;92104.84;2028464;70;20180;-71
2024/04/18 07:06:58;;;;;;;4.50;3.33;;;;;;;6.43;65.62;92105.03;2028205;70;20522;-71
2024/04/18 07:09:36;;;;;;;5.25;3.70;;;;;;;6.77;66.45;92106.53;2028443;70;20582;-72
2024/04/18 07:12:16;;;;;;;5.43;3.50;;;;;;;6.97;65.36;92107.13;2028168;70;20166;-72
2024/04/18 07:14:41;;;;;;;6.18;3.90;;;;;;;7.17;66.38;92104.88;2028185;70;20578;-72
2024/04/18 07:17:10;;;;;;;6.85;3.90;;;;;;;7.25;66.04;92106.13;2028260;70;20563;-71
2024/04/18 07:19:35;;;;;;;4.05;3.20;;;;;;;7.42;65.69;92109.94;2028222;70;20149;-71
2024/04/18 07:22:01;;;;;;;5.97;3.58;;;;;;;7.43;65.35;92114.94;2028496;70;20156;-72
2024/04/18 07:24:49;;;;;;;4.13;3.25;;;;;;;7.47;64.50;92109.59;2028213;70;20164;-71
2024/04/18 07:27:15;;;;;;;3.90;3.00;;;;;;;7.80;64.02;92117.94;2028620;70;20620;-70
2024/04/18 07:29:41;;;;;;;4.25;2.90;;;;;;;8.09;65.07;92117.59;2028380;70;20170;-71
2024/04/18 07:32:07;;;;;;;4.45;2.75;;;;;;;8.36;63.73;92105.91;2028021;70;20145;-70
2024/04/18 07:34:33;;;;;;;3.65;2.45;;;;;;;8.59;64.58;92129.66;2030611;70;20218;-70
2024/04/18 07:36:59;;;;;;;5.47;2.67;;;;;;;9.05;63.55;92130.88;2028678;70;20168;-70
2024/04/18 07:39:25;;;;;;;1.67;1.40;;;;;;;9.00;62.24;92127.13;2028588;70;20152;-70
2024/04/18 07:41:51;;;;;;;2.30;1.80;;;;;;;9.29;61.00;92123.09;2028729;70;20148;-70
2024/04/18 07:44:16;;;;;;;2.25;1.75;;;;;;;9.27;59.41;92126.53;2028575;70;20152;-70
2024/04/18 07:46:44;;;;;;;2.33;1.90;;;;;;;9.80;59.03;92125.88;2028187;70;20153;-69
2024/04/18 07:49:10;;;;;;;2.97;1.77;;;;;;;10.09;57.97;92130.97;2027978;70;20141;-70
2024/04/18 07:51:37;;;;;;;3.45;1.63;;;;;;;10.45;56.56;92128.66;2028213;70;20155;-70
2024/04/18 07:54:02;;;;;;;1.40;1.13;;;;;;;10.52;55.15;92122.69;2028287;70;20152;-71
2024/04/18 07:56:28;;;;;;;2.63;1.20;;;;;;;10.55;51.97;92115.09;2028395;70;20165;-71
2024/04/18 07:58:53;;;;;;;1.55;1.33;;;;;;;10.71;53.13;92129.25;2028472;70;20117;-72
2024/04/18 08:01:19;;;;;;;11.88;2.60;;;;;;;11.23;54.02;92124.81;2028135;70;20192;-71
2024/04/18 08:03:45;;;;;;;2.33;1.60;;;;;;;10.85;50.95;92135.63;2028069;70;20229;-70
2024/04/18 08:06:10;;;;;;;4.13;2.55;;;;;;;11.18;51.04;92132.34;2028392;70;20148;-74
2024/04/18 08:08:36;;;;;;;3.55;1.60;;;;;;;10.70;52.08;92134.16;2028360;70;20232;-70
2024/04/18 08:11:03;;;;;;;3.45;1.50;;;;;;;11.15;51.72;92136.41;2027753;70;20188;-72
2024/04/18 08:13:29;;;;;;;2.20;1.45;;;;;;;11.07;50.26;92131.09;2027718;70;20176;-71
2024/04/18 08:15:55;;;;;;;2.05;1.35;;;;;;;11.66;49.41;92122.69;2027950;70;20160;-71
2024/04/18 08:18:21;;;;;;;3.03;1.77;;;;;;;11.92;49.70;92133.78;2028105;70;20228;-72
2024/04/18 08:20:47;;;;;;;3.35;1.70;;;;;;;11.99;49.07;92131.97;2027986;70;20158;-72
2024/04/18 08:23:19;;;;;;;2.13;1.67;;;;;;;11.70;49.83;92127.78;2027976;70;20278;-71
2024/04/18 08:25:46;;;;;;;1.60;1.20;;;;;;;11.94;46.29;92134.59;2027715;70;20217;-71
2024/04/18 08:28:11;;;;;;;0.88;0.70;;;;;;;12.05;44.90;92140.72;2028020;70;20217;-73
2024/04/18 08:30:39;;;;;;;1.00;0.90;;;;;;;12.11;45.63;92132.53;2028013;70;20165;-73
2024/04/18 08:33:05;;;;;;;1.85;0.82;;;;;;;11.75;44.94;92140.00;2027903;70;20486;-73
2024/04/18 08:35:30;;;;;;;1.35;0.80;;;;;;;12.24;44.47;92131.72;2028016;70;20141;-72
2024/04/18 08:37:56;;;;;;;1.70;0.60;;;;;;;11.78;44.57;92133.09;2027921;70;20192;-74
2024/04/18 08:40:21;;;;;;;0.70;0.50;;;;;;;12.10;42.90;92129.00;2028053;70;20141;-75
2024/04/18 08:42:47;;;;;;;3.15;0.98;;;;;;;12.15;42.83;92136.28;2028600;70;20572;-75
2024/04/18 08:45:13;;;;;;;0.57;0.50;;;;;;;11.68;41.56;92130.50;2028493;70;20133;-74
2024/04/18 08:47:40;;;;;;;0.75;0.57;;;;;;;12.63;40.94;92139.81;2028759;70;20172;-71
2024/04/18 08:50:07;;;;;;;1.42;0.50;;;;;;;13.06;42.74;92130.38;2028646;70;20503;-71
2024/04/18 08:52:35;;;;;;;1.23;0.50;;;;;;;14.83;42.25;92135.91;2028495;70;20167;-73
2024/04/18 08:55:01;;;;;;;0.88;0.43;;;;;;;14.82;39.14;92151.44;2028408;70;20188;-74
2024/04/18 08:57:32;;;;;;;0.98;0.43;;;;;;;13.77;37.44;92146.00;2028736;70;20164;-71
2024/04/18 09:00:00;;;;;;;0.85;0.50;;;;;;;13.36;38.54;92145.06;2028343;70;20172;-71
2024/04/18 09:02:29;;;;;;;0.73;0.40;;;;;;;14.26;37.48;92148.66;2028424;70;20148;-72
2024/04/18 09:04:57;;;;;;;0.75;0.60;;;;;;;12.68;39.08;92152.03;2028427;70;20232;-73
2024/04/18 09:07:23;;;;;;;1.60;0.40;;;;;;;13.56;38.60;92148.03;2028428;70;20497;-72
2024/04/18 09:09:53;;;;;;;2.20;0.75;;;;;;;13.70;39.53;92151.44;2027929;70;20169;-72
2024/04/18 09:12:19;;;;;;;1.00;0.50;;;;;;;12.80;37.32;92151.84;2028507;70;20184;-71
2024/04/18 09:14:44;;;;;;;0.88;0.40;;;;;;;12.76;36.62;92146.00;2028116;70;20233;-71
2024/04/18 09:17:14;;;;;;;0.77;0.70;;;;;;;13.71;37.45;92141.56;2028301;70;20153;-71
2024/04/18 09:19:39;;;;;;;0.63;0.50;;;;;;;12.70;36.86;92138.72;2027764;70;20164;-70
2024/04/18 09:22:05;;;;;;;0.70;0.60;;;;;;;13.44;36.34;92145.41;2028263;70;20221;-72
2024/04/18 09:24:31;;;;;;;1.23;0.90;;;;;;;14.01;35.81;92146.97;2027564;70;20156;-71
2024/04/18 09:26:58;;;;;;;0.50;0.50;;;;;;;14.87;35.68;92155.88;2027756;70;20277;-70
2024/04/18 09:29:23;;;;;;;0.40;0.40;;;;;;;15.72;35.15;92156.03;2028444;70;20156;-70
2024/04/18 09:31:51;;;;;;;0.60;0.40;;;;;;;16.83;37.83;92157.34;2028552;70;20168;-71
2024/04/18 09:34:18;;;;;;;2.78;0.65;;;;;;;15.84;33.00;92164.22;2028321;70;20168;-72
2024/04/18 09:36:45;;;;;;;0.43;0.40;;;;;;;14.87;35.09;92162.28;2028308;70;20187;-72
2024/04/18 09:39:16;;;;;;;0.88;0.38;;;;;;;14.94;34.17;92160.41;2028348;70;20160;-73
2024/04/18 09:41:48;;;;;;;0.52;0.32;;;;;;;15.60;34.42;92161.25;2028405;70;20244;-71
2024/04/18 09:44:24;;;;;;;0.80;0.60;;;;;;;13.74;33.85;92159.34;2028453;70;20194;-72
2024/04/18 09:46:51;;;;;;;1.13;0.77;;;;;;;14.43;34.30;92164.13;2028410;70;20156;-70
2024/04/18 09:49:18;;;;;;;1.20;0.80;;;;;;;13.41;34.42;92157.28;2028286;70;20203;-71
2024/04/18 09:51:46;;;;;;;0.65;0.65;;;;;;;13.40;35.88;92170.69;2028142;70;20161;-70
2024/04/18 09:54:13;;;;;;;0.45;0.40;;;;;;;14.86;36.57;92165.78;2028411;70;20276;-70
2024/04/18 09:56:39;;;;;;;0.80;0.57;;;;;;;16.52;36.80;92178.41;2028401;70;20175;-73
2024/04/18 09:59:06;;;;;;;1.20;0.30;;;;;;;18.33;31.75;92167.69;2028557;70;20161;-74
2024/04/18 10:01:35;;;;;;;0.73;0.60;;;;;;;17.21;32.91;92156.97;2027795;70;20133;-73
2024/04/18 10:04:00;;;;;;;0.63;0.38;;;;;;;16.17;31.92;92173.75;2028437;70;20171;-73
2024/04/18 10:06:33;;;;;;;0.38;0.38;;;;;;;13.80;33.47;92173.00;2028567;70;20566;-77
2024/04/18 10:09:00;;;;;;;1.48;0.50;;;;;;;13.00;35.58;92163.28;2028197;70;20183;-78
2024/04/18 10:11:27;;;;;;;1.23;0.60;;;;;;;13.72;33.53;92168.47;2028583;70;20224;-76
2024/04/18 10:13:59;;;;;;;2.10;0.50;;;;;;;13.06;34.12;92174.88;2028498;70;20333;-76
2024/04/18 10:16:25;;;;;;;1.60;0.40;;;;;;;14.01;36.35;92174.53;2028411;70;20165;-73
2024/04/18 10:18:51;;;;;;;0.55;0.47;;;;;;;13.48;34.23;92178.78;2028417;70;20163;-72
2024/04/18 10:21:25;;;;;;;0.98;0.50;;;;;;;11.97;36.31;92183.38;2028470;70;20270;-74
2024/04/18 10:23:53;;;;;;;0.75;0.60;;;;;;;12.87;35.51;92168.41;2028517;70;20193;-77
2024/04/18 10:26:21;;;;;;;2.15;0.60;;;;;;;11.76;35.52;92186.56;2027853;70;20164;-76
2024/04/18 10:28:49;;;;;;;1.45;1.13;;;;;;;11.51;37.21;92193.13;2028104;70;20152;-74
2024/04/18 10:31:16;;;;;;;2.65;1.25;;;;;;;11.92;37.45;92190.19;2027992;70;20152;-73
2024/04/18 10:33:43;;;;;;;1.02;0.70;;;;;;;12.86;34.38;92183.91;2028358;70;20161;-72
2024/04/18 10:36:12;;;;;;;0.75;0.40;;;;;;;12.88;35.33;92192.47;2028013;70;20184;-69
2024/04/18 10:38:44;;;;;;;0.90;0.70;;;;;;;14.22;34.51;92188.84;2028422;70;20165;-71
2024/04/18 10:41:12;;;;;;;0.70;0.57;;;;;;;14.02;33.68;92184.47;2028337;70;20643;-72
2024/04/18 10:43:40;;;;;;;0.52;0.40;;;;;;;14.87;32.61;92182.09;2028448;70;20228;-73
2024/04/18 10:46:07;;;;;;;0.40;0.40;;;;;;;12.36;34.28;92185.16;2028299;70;20588;-71
2024/04/18 10:48:36;;;;;;;0.65;0.50;;;;;;;15.86;33.85;92195.50;2028409;70;20184;-71
2024/04/18 10:51:03;;;;;;;0.93;0.70;;;;;;;18.59;30.13;92202.50;2028246;70;20243;-72
2024/04/18 10:53:29;;;;;;;3.42;0.50;;;;;;;16.09;29.36;92205.47;2024860;70;20601;-74
2024/04/18 10:55:55;;;;;;;1.50;0.60;;;;;;;18.27;28.12;92200.31;2024831;70;20168;-71
2024/04/18 10:58:21;;;;;;;1.05;0.40;;;;;;;16.25;31.29;92206.00;2028291;70;20144;-72
2024/04/18 11:00:47;;;;;;;1.10;0.50;;;;;;;14.67;31.17;92204.03;2028423;70;20276;-73
2024/04/18 11:03:13;;;;;;;1.70;0.52;;;;;;;15.94;29.88;92209.22;2028332;70;20160;-71
2024/04/18 11:05:43;;;;;;;0.73;0.40;;;;;;;18.45;28.35;92205.00;2028146;70;20158;-75
2024/04/18 11:08:21;;;;;;;0.52;0.32;;;;;;;17.37;28.32;92202.22;2028146;70;20213;-73
2024/04/18 11:10:47;;;;;;;1.20;0.40;;;;;;;16.19;30.01;92205.09;2028446;70;20149;-72
2024/04/18 11:13:15;;;;;;;2.20;0.40;;;;;;;16.50;28.65;92198.25;2028585;70;20510;-71
2024/04/18 11:15:41;;;;;;;0.35;0.35;;;;;;;18.21;27.94;92190.91;2028381;70;20152;-73
2024/04/18 11:18:07;;;;;;;0.57;0.40;;;;;;;17.68;27.71;92210.19;2028470;70;20144;-73
2024/04/18 11:20:34;;;;;;;1.27;0.40;;;;;;;17.00;28.71;92210.44;2028239;70;20173;-71
2024/04/18 11:23:00;;;;;;;0.52;0.30;;;;;;;17.16;27.69;92207.34;2024873;70;20181;-74
2024/04/18 11:25:27;;;;;;;0.73;0.40;;;;;;;18.17;27.31;92205.06;2028187;70;20153;-72
2024/04/18 11:28:11;;;;;;;5.25;0.40;;;;;;;24.47;25.00;92204.88;2028317;70;20158;-75
2024/04/18 11:30:40;;;;;;;0.57;0.30;;;;;;;23.44;24.23;92208.78;2027926;70;20160;-74
2024/04/18 11:33:08;;;;;;;0.43;0.30;;;;;;;24.90;22.34;92210.63;2028285;70;20160;-69
2024/04/18 11:35:34;;;;;;;1.15;0.30;;;;;;;21.62;24.43;92205.75;2028238;70;20177;-71
2024/04/18 11:38:08;;;;;;;0.88;0.30;;;;;;;24.04;22.28;92209.78;2028086;70;20156;-72
2024/04/18 11:40:34;;;;;;;0.55;0.25;;;;;;;21.09;25.05;92205.06;2028250;70;20482;-74
2024/04/18 11:42:59;;;;;;;0.43;0.40;;;;;;;18.77;27.37;92188.69;2028347;70;20606;-74
2024/04/18 11:45:25;;;;;;;1.05;0.40;;;;;;;16.59;27.64;92199.22;2028150;70;20133;-74
2024/04/18 11:47:57;;;;;;;0.40;0.30;;;;;;;15.87;28.77;92190.56;2028082;70;20238;-74
2024/04/18 11:50:25;;;;;;;0.50;0.30;;;;;;;21.92;25.42;92182.47;2021932;70;20228;-74
2024/04/18 11:52:51;;;;;;;1.13;0.40;;;;;;;18.19;25.79;92188.75;2024746;70;20195;-75
2024/04/18 11:55:26;;;;;;;0.30;0.28;;;;;;;15.01;28.57;92179.06;2028245;70;20165;-74